sensor_id;sensor_type;location;lat;lon;timestamp;pressure;altitude;pressure_sealevel;temperature;humidity
70206;BME280;57593;55.896;37.396;2022-11-14T00:00:30;99842.00;;;1.14;100.00
70206;BME280;57593;55.896;37.396;2022-11-14T00:01:19;99835.75;;;1.10;100.00
70206;BME280;57593;55.896;37.396;2022-11-14T00:02:09;99845.41;;;1.14;100.00
70206;BME280;57593;55.896;37.396;2022-11-14T00:03:00;99853.16;;;1.04;100.00
70206;BME280;57593;55.896;37.396;2022-11-14T00:03:49;99839.13;;;1.05;100.00
70206;BME280;57593;55.896;37.396;2022-11-14T00:04:38;99835.75;;;1.10;100.00
70206;BME280;57593;55.896;37.396;2022-11-14T00:05:28;99846.94;;;1.10;100.00
70206;BME280;57593;55.896;37.396;2022-11-14T00:06:18;99842.25;;;1.12;100.00
70206;BME280;57593;55.896;37.396;2022-11-14T00:07:07;99843.88;;;1.23;100.00
70206;BME280;57593;55.896;37.396;2022-11-14T00:07:57;99852.97;;;1.21;100.00
70206;BME280;57593;55.896;37.396;2022-11-14T00:08:46;99848.00;;;1.14;100.00
70206;BME280;57593;55.896;37.396;2022-11-14T00:09:35;99841.47;;;1.06;100.00
70206;BME280;57593;55.896;37.396;2022-11-14T00:10:26;99838.38;;;1.15;100.00
70206;BME280;57593;55.896;37.396;2022-11-14T00:11:15;99838.94;;;1.22;100.00
70206;BME280;57593;55.896;37.396;2022-11-14T00:12:05;99826.94;;;1.16;100.00
70206;BME280;57593;55.896;37.396;2022-11-14T00:12:54;99846.75;;;1.27;100.00
70206;BME280;57593;55.896;37.396;2022-11-14T00:13:44;99842.09;;;1.34;100.00
70206;BME280;57593;55.896;37.396;2022-11-14T00:14:34;99843.38;;;1.32;100.00
70206;BME280;57593;55.896;37.396;2022-11-14T00:15:23;99844.91;;;1.28;100.00
70206;BME280;57593;55.896;37.396;2022-11-14T00:16:13;99847.53;;;1.28;100.00
70206;BME280;57593;55.896;37.396;2022-11-14T00:17:03;99848.78;;;1.15;100.00
70206;BME280;57593;55.896;37.396;2022-11-14T00:17:52;99846.44;;;1.13;100.00
70206;BME280;57593;55.896;37.396;2022-11-14T00:18:41;99841.72;;;1.05;100.00
70206;BME280;57593;55.896;37.396;2022-11-14T00:19:31;99844.59;;;1.03;100.00
70206;BME280;57593;55.896;37.396;2022-11-14T00:20:20;99853.69;;;1.06;100.00
70206;BME280;57593;55.896;37.396;2022-11-14T00:21:09;99846.69;;;1.17;100.00
70206;BME280;57593;55.896;37.396;2022-11-14T00:21:58;99848.78;;;1.10;100.00
70206;BME280;57593;55.896;37.396;2022-11-14T00:22:48;99849.81;;;1.14;100.00
70206;BME280;57593;55.896;37.396;2022-11-14T00:23:37;99863.06;;;1.12;100.00
70206;BME280;57593;55.896;37.396;2022-11-14T00:24:26;99846.16;;;1.04;100.00
70206;BME280;57593;55.896;37.396;2022-11-14T00:25:15;99848.53;;;1.11;100.00
70206;BME280;57593;55.896;37.396;2022-11-14T00:26:04;99847.00;;;1.20;100.00
70206;BME280;57593;55.896;37.396;2022-11-14T00:26:54;99852.47;;;1.24;100.00
70206;BME280;57593;55.896;37.396;2022-11-14T00:27:43;99844.16;;;1.27;100.00
70206;BME280;57593;55.896;37.396;2022-11-14T00:28:32;99861.84;;;1.25;100.00
70206;BME280;57593;55.896;37.396;2022-11-14T00:29:21;99851.69;;;1.23;100.00
70206;BME280;57593;55.896;37.396;2022-11-14T00:30:11;99858.44;;;1.19;100.00
70206;BME280;57593;55.896;37.396;2022-11-14T00:31:00;99854.50;;;1.12;100.00
70206;BME280;57593;55.896;37.396;2022-11-14T00:31:49;99868.78;;;1.09;100.00
70206;BME280;57593;55.896;37.396;2022-11-14T00:32:38;99855.75;;;0.99;100.00
70206;BME280;57593;55.896;37.396;2022-11-14T00:33:27;99860.69;;;1.00;100.00
70206;BME280;57593;55.896;37.396;2022-11-14T00:34:17;99866.41;;;1.02;100.00
70206;BME280;57593;55.896;37.396;2022-11-14T00:35:07;99874.97;;;0.98;100.00
70206;BME280;57593;55.896;37.396;2022-11-14T00:35:57;99853.91;;;0.99;100.00
70206;BME280;57593;55.896;37.396;2022-11-14T00:36:46;99865.16;;;1.15;100.00
70206;BME280;57593;55.896;37.396;2022-11-14T00:37:35;99859.69;;;1.12;100.00
70206;BME280;57593;55.896;37.396;2022-11-14T00:38:25;99868.56;;;1.21;100.00
70206;BME280;57593;55.896;37.396;2022-11-14T00:39:14;99868.03;;;1.14;100.00
70206;BME280;57593;55.896;37.396;2022-11-14T00:40:03;99862.78;;;0.98;100.00
70206;BME280;57593;55.896;37.396;2022-11-14T00:40:53;99867.41;;;0.91;100.00
70206;BME280;57593;55.896;37.396;2022-11-14T00:41:42;99864.31;;;0.94;100.00
70206;BME280;57593;55.896;37.396;2022-11-14T00:42:32;99860.69;;;0.95;100.00
70206;BME280;57593;55.896;37.396;2022-11-14T00:43:22;99858.03;;;0.85;100.00
70206;BME280;57593;55.896;37.396;2022-11-14T00:44:11;99869.78;;;0.98;100.00
70206;BME280;57593;55.896;37.396;2022-11-14T00:45:00;99869.81;;;1.03;100.00
70206;BME280;57593;55.896;37.396;2022-11-14T00:45:50;99866.97;;;1.10;100.00
70206;BME280;57593;55.896;37.396;2022-11-14T00:46:39;99871.69;;;1.13;100.00
70206;BME280;57593;55.896;37.396;2022-11-14T00:47:28;99871.63;;;1.02;100.00
70206;BME280;57593;55.896;37.396;2022-11-14T00:48:17;99877.66;;;1.13;100.00
70206;BME280;57593;55.896;37.396;2022-11-14T00:49:07;99879.44;;;1.02;100.00
70206;BME280;57593;55.896;37.396;2022-11-14T00:49:56;99873.97;;;0.99;100.00
70206;BME280;57593;55.896;37.396;2022-11-14T00:50:45;99872.63;;;0.91;100.00
70206;BME280;57593;55.896;37.396;2022-11-14T00:51:35;99870.53;;;0.88;100.00
70206;BME280;57593;55.896;37.396;2022-11-14T00:52:24;99869.75;;;0.87;100.00
70206;BME280;57593;55.896;37.396;2022-11-14T00:53:13;99870.28;;;0.89;100.00
70206;BME280;57593;55.896;37.396;2022-11-14T00:54:03;99882.50;;;0.89;100.00
70206;BME280;57593;55.896;37.396;2022-11-14T00:54:51;99881.34;;;0.69;100.00
70206;BME280;57593;55.896;37.396;2022-11-14T00:55:41;99880.25;;;0.65;100.00
70206;BME280;57593;55.896;37.396;2022-11-14T00:56:31;99884.97;;;0.68;100.00
70206;BME280;57593;55.896;37.396;2022-11-14T00:57:20;99876.16;;;0.75;100.00
70206;BME280;57593;55.896;37.396;2022-11-14T00:58:09;99891.81;;;0.80;100.00
70206;BME280;57593;55.896;37.396;2022-11-14T00:58:59;99892.59;;;0.80;100.00
70206;BME280;57593;55.896;37.396;2022-11-14T00:59:48;99887.06;;;0.71;100.00
70206;BME280;57593;55.896;37.396;2022-11-14T01:00:37;99887.25;;;0.60;100.00
70206;BME280;57593;55.896;37.396;2022-11-14T01:01:26;99886.47;;;0.59;100.00
70206;BME280;57593;55.896;37.396;2022-11-14T01:02:16;99878.66;;;0.59;100.00
70206;BME280;57593;55.896;37.396;2022-11-14T01:03:05;99883.91;;;0.64;100.00
70206;BME280;57593;55.896;37.396;2022-11-14T01:03:54;99882.84;;;0.60;100.00
70206;BME280;57593;55.896;37.396;2022-11-14T01:04:43;99889.13;;;0.64;100.00
70206;BME280;57593;55.896;37.396;2022-11-14T01:05:39;99889.88;;;0.65;100.00
70206;BME280;57593;55.896;37.396;2022-11-14T01:06:29;99884.97;;;0.68;100.00
70206;BME280;57593;55.896;37.396;2022-11-14T01:07:18;99901.09;;;0.70;100.00
70206;BME280;57593;55.896;37.396;2022-11-14T01:08:07;99870.94;;;0.69;100.00
70206;BME280;57593;55.896;37.396;2022-11-14T01:08:56;99895.44;;;0.79;100.00
70206;BME280;57593;55.896;37.396;2022-11-14T01:09:45;99891.75;;;0.75;100.00
70206;BME280;57593;55.896;37.396;2022-11-14T01:10:39;99888.91;;;0.76;100.00
70206;BME280;57593;55.896;37.396;2022-11-14T01:11:28;99891.81;;;0.80;100.00
70206;BME280;57593;55.896;37.396;2022-11-14T01:12:18;99897.50;;;0.77;100.00
70206;BME280;57593;55.896;37.396;2022-11-14T01:13:08;99888.69;;;0.83;100.00
70206;BME280;57593;55.896;37.396;2022-11-14T01:13:57;99899.81;;;0.73;100.00
70206;BME280;57593;55.896;37.396;2022-11-14T01:14:47;99889.66;;;0.71;100.00
70206;BME280;57593;55.896;37.396;2022-11-14T01:15:46;99890.97;;;0.74;100.00
70206;BME280;57593;55.896;37.396;2022-11-14T01:16:36;99894.56;;;0.63;100.00
70206;BME280;57593;55.896;37.396;2022-11-14T01:17:26;99901.88;;;0.71;100.00
70206;BME280;57593;55.896;37.396;2022-11-14T01:18:19;99904.72;;;0.64;100.00
70206;BME280;57593;55.896;37.396;2022-11-14T01:19:08;99896.59;;;0.61;100.00
70206;BME280;57593;55.896;37.396;2022-11-14T01:19:57;99904.47;;;0.66;100.00
70206;BME280;57593;55.896;37.396;2022-11-14T01:20:47;99916.41;;;0.67;100.00
70206;BME280;57593;55.896;37.396;2022-11-14T01:21:37;99892.22;;;0.61;100.00
70206;BME280;57593;55.896;37.396;2022-11-14T01:22:26;99903.22;;;0.74;100.00
70206;BME280;57593;55.896;37.396;2022-11-14T01:23:17;99885.44;;;0.60;100.00
70206;BME280;57593;55.896;37.396;2022-11-14T01:24:06;99903.41;;;0.67;100.00
70206;BME280;57593;55.896;37.396;2022-11-14T01:24:55;99924.94;;;0.57;100.00
70206;BME280;57593;55.896;37.396;2022-11-14T01:25:46;99925.16;;;0.50;100.00
70206;BME280;57593;55.896;37.396;2022-11-14T01:26:35;99918.34;;;0.44;100.00
70206;BME280;57593;55.896;37.396;2022-11-14T01:27:25;99902.34;;;0.63;100.00
70206;BME280;57593;55.896;37.396;2022-11-14T01:28:17;99893.47;;;0.59;100.00
70206;BME280;57593;55.896;37.396;2022-11-14T01:29:06;99900.19;;;0.54;100.00
70206;BME280;57593;55.896;37.396;2022-11-14T01:29:56;99910.94;;;0.63;100.00
70206;BME280;57593;55.896;37.396;2022-11-14T01:30:45;99898.69;;;0.59;100.00
70206;BME280;57593;55.896;37.396;2022-11-14T01:31:34;99907.06;;;0.66;100.00
70206;BME280;57593;55.896;37.396;2022-11-14T01:32:25;99926.03;;;0.66;100.00
70206;BME280;57593;55.896;37.396;2022-11-14T01:33:14;99914.06;;;0.65;100.00
70206;BME280;57593;55.896;37.396;2022-11-14T01:34:04;99914.09;;;0.70;100.00
70206;BME280;57593;55.896;37.396;2022-11-14T01:34:53;99921.16;;;0.75;100.00
70206;BME280;57593;55.896;37.396;2022-11-14T01:35:43;99919.59;;;0.79;100.00
70206;BME280;57593;55.896;37.396;2022-11-14T01:36:32;99916.75;;;0.81;100.00
70206;BME280;57593;55.896;37.396;2022-11-14T01:37:21;99923.56;;;0.87;100.00
70206;BME280;57593;55.896;37.396;2022-11-14T01:38:12;99938.56;;;0.75;100.00
70206;BME280;57593;55.896;37.396;2022-11-14T01:39:02;99945.81;;;0.67;100.00
70206;BME280;57593;55.896;37.396;2022-11-14T01:39:52;99955.84;;;0.53;100.00
70206;BME280;57593;55.896;37.396;2022-11-14T01:40:43;99953.41;;;0.42;100.00
70206;BME280;57593;55.896;37.396;2022-11-14T01:41:32;99937.81;;;0.42;100.00
70206;BME280;57593;55.896;37.396;2022-11-14T01:42:21;99929.25;;;0.46;100.00
70206;BME280;57593;55.896;37.396;2022-11-14T01:44:12;99940.28;;;0.59;100.00
70206;BME280;57593;55.896;37.396;2022-11-14T01:46:41;99942.50;;;0.45;100.00
70206;BME280;57593;55.896;37.396;2022-11-14T01:47:32;99940.97;;;0.49;100.00
70206;BME280;57593;55.896;37.396;2022-11-14T01:49:53;99939.13;;;0.44;100.00
70206;BME280;57593;55.896;37.396;2022-11-14T01:50:43;99940.63;;;0.35;100.00
70206;BME280;57593;55.896;37.396;2022-11-14T01:51:38;99931.00;;;0.35;100.00
70206;BME280;57593;55.896;37.396;2022-11-14T01:52:36;99949.53;;;0.44;100.00
70206;BME280;57593;55.896;37.396;2022-11-14T01:53:27;99958.31;;;0.38;100.00
70206;BME280;57593;55.896;37.396;2022-11-14T01:54:24;99946.34;;;0.37;100.00
70206;BME280;57593;55.896;37.396;2022-11-14T01:55:14;99951.75;;;0.30;100.00
70206;BME280;57593;55.896;37.396;2022-11-14T01:56:05;99945.06;;;0.40;100.00
70206;BME280;57593;55.896;37.396;2022-11-14T01:56:59;99939.91;;;0.45;100.00
70206;BME280;57593;55.896;37.396;2022-11-14T01:57:49;99948.19;;;0.42;100.00
70206;BME280;57593;55.896;37.396;2022-11-14T01:58:43;99949.31;;;0.51;100.00
70206;BME280;57593;55.896;37.396;2022-11-14T01:59:36;99958.59;;;0.42;100.00
70206;BME280;57593;55.896;37.396;2022-11-14T02:00:26;99975.22;;;0.41;100.00
70206;BME280;57593;55.896;37.396;2022-11-14T02:01:15;99947.66;;;0.40;100.00
70206;BME280;57593;55.896;37.396;2022-11-14T02:02:09;99961.50;;;0.45;100.00
70206;BME280;57593;55.896;37.396;2022-11-14T02:03:00;99959.81;;;0.34;100.00
70206;BME280;57593;55.896;37.396;2022-11-14T02:03:52;99961.16;;;0.37;100.00
70206;BME280;57593;55.896;37.396;2022-11-14T02:04:45;99961.94;;;0.37;100.00
70206;BME280;57593;55.896;37.396;2022-11-14T02:05:36;99975.13;;;0.30;100.00
70206;BME280;57593;55.896;37.396;2022-11-14T02:06:28;99984.34;;;0.16;100.00
70206;BME280;57593;55.896;37.396;2022-11-14T02:07:18;99961.28;;;0.25;100.00
70206;BME280;57593;55.896;37.396;2022-11-14T02:08:10;99971.19;;;0.28;100.00
70206;BME280;57593;55.896;37.396;2022-11-14T02:09:03;99959.44;;;0.20;100.00
70206;BME280;57593;55.896;37.396;2022-11-14T02:09:54;99964.16;;;0.23;100.00
70206;BME280;57593;55.896;37.396;2022-11-14T02:10:43;99930.56;;;0.16;100.00
70206;BME280;57593;55.896;37.396;2022-11-14T02:11:36;99972.63;;;0.13;100.00
70206;BME280;57593;55.896;37.396;2022-11-14T02:12:26;99952.63;;;0.14;100.00
70206;BME280;57593;55.896;37.396;2022-11-14T02:13:16;99983.75;;;0.09;100.00
70206;BME280;57593;55.896;37.396;2022-11-14T02:14:05;99969.59;;;0.22;100.00
70206;BME280;57593;55.896;37.396;2022-11-14T02:14:56;99987.59;;;0.28;100.00
70206;BME280;57593;55.896;37.396;2022-11-14T02:15:46;99969.81;;;0.20;100.00
70206;BME280;57593;55.896;37.396;2022-11-14T02:16:38;99992.72;;;0.23;100.00
70206;BME280;57593;55.896;37.396;2022-11-14T02:17:29;99957.56;;;0.15;100.00
70206;BME280;57593;55.896;37.396;2022-11-14T02:18:18;99970.06;;;0.18;100.00
70206;BME280;57593;55.896;37.396;2022-11-14T02:19:08;99962.59;;;0.22;100.00
70206;BME280;57593;55.896;37.396;2022-11-14T02:20:59;99979.94;;;0.16;100.00
70206;BME280;57593;55.896;37.396;2022-11-14T02:21:48;99963.66;;;0.26;100.00
70206;BME280;57593;55.896;37.396;2022-11-14T02:22:39;99968.66;;;0.33;100.00
70206;BME280;57593;55.896;37.396;2022-11-14T02:23:31;99972.31;;;0.37;100.00
70206;BME280;57593;55.896;37.396;2022-11-14T02:24:20;99950.91;;;0.25;100.00
70206;BME280;57593;55.896;37.396;2022-11-14T02:25:12;99976.13;;;0.24;100.00
70206;BME280;57593;55.896;37.396;2022-11-14T02:26:03;99994.06;;;0.26;100.00
70206;BME280;57593;55.896;37.396;2022-11-14T02:26:52;100016.75;;;0.08;100.00
70206;BME280;57593;55.896;37.396;2022-11-14T02:27:41;99965.31;;;0.10;100.00
70206;BME280;57593;55.896;37.396;2022-11-14T02:28:31;99962.28;;;0.18;100.00
70206;BME280;57593;55.896;37.396;2022-11-14T02:29:20;99972.88;;;0.12;100.00
70206;BME280;57593;55.896;37.396;2022-11-14T02:30:16;99968.03;;;0.21;100.00
70206;BME280;57593;55.896;37.396;2022-11-14T02:31:06;99963.91;;;0.25;100.00
70206;BME280;57593;55.896;37.396;2022-11-14T02:31:55;99966.88;;;0.39;100.00
70206;BME280;57593;55.896;37.396;2022-11-14T02:32:45;99964.53;;;0.37;100.00
70206;BME280;57593;55.896;37.396;2022-11-14T02:33:34;99966.88;;;0.39;100.00
70206;BME280;57593;55.896;37.396;2022-11-14T02:34:23;99970.31;;;0.44;100.00
70206;BME280;57593;55.896;37.396;2022-11-14T02:35:12;99975.00;;;0.42;100.00
70206;BME280;57593;55.896;37.396;2022-11-14T02:36:02;99971.03;;;0.34;100.00
70206;BME280;57593;55.896;37.396;2022-11-14T02:36:51;99965.81;;;0.34;100.00
70206;BME280;57593;55.896;37.396;2022-11-14T02:37:41;99978.56;;;0.36;100.00
70206;BME280;57593;55.896;37.396;2022-11-14T02:38:30;99970.22;;;0.34;100.00
70206;BME280;57593;55.896;37.396;2022-11-14T02:39:20;99976.63;;;0.26;100.00
70206;BME280;57593;55.896;37.396;2022-11-14T02:40:09;99979.84;;;0.33;100.00
70206;BME280;57593;55.896;37.396;2022-11-14T02:40:59;99977.53;;;0.37;100.00
70206;BME280;57593;55.896;37.396;2022-11-14T02:41:49;99986.84;;;0.33;100.00
70206;BME280;57593;55.896;37.396;2022-11-14T02:42:39;99974.84;;;0.27;100.00
70206;BME280;57593;55.896;37.396;2022-11-14T02:43:28;99951.97;;;0.24;100.00
70206;BME280;57593;55.896;37.396;2022-11-14T02:44:18;99972.50;;;0.25;100.00
70206;BME280;57593;55.896;37.396;2022-11-14T02:45:09;99978.06;;;0.39;100.00
70206;BME280;57593;55.896;37.396;2022-11-14T02:45:59;99974.59;;;0.28;100.00
70206;BME280;57593;55.896;37.396;2022-11-14T02:46:48;99990.69;;;0.25;100.00
70206;BME280;57593;55.896;37.396;2022-11-14T02:47:37;99981.78;;;0.21;100.00
70206;BME280;57593;55.896;37.396;2022-11-14T02:48:27;99987.03;;;0.26;100.00
70206;BME280;57593;55.896;37.396;2022-11-14T02:49:16;99974.03;;;0.26;100.00
70206;BME280;57593;55.896;37.396;2022-11-14T02:50:05;99979.44;;;0.20;100.00
70206;BME280;57593;55.896;37.396;2022-11-14T02:50:54;99978.66;;;0.19;100.00
70206;BME280;57593;55.896;37.396;2022-11-14T02:51:44;99961.47;;;0.13;100.00
70206;BME280;57593;55.896;37.396;2022-11-14T02:52:33;99977.34;;;0.16;100.00
70206;BME280;57593;55.896;37.396;2022-11-14T02:53:22;99986.25;;;0.26;100.00
70206;BME280;57593;55.896;37.396;2022-11-14T02:54:11;99987.97;;;0.15;100.00
70206;BME280;57593;55.896;37.396;2022-11-14T02:55:01;99972.03;;;0.06;100.00
70206;BME280;57593;55.896;37.396;2022-11-14T02:55:50;100003.94;;;0.02;100.00
70206;BME280;57593;55.896;37.396;2022-11-14T02:56:39;100012.41;;;-0.08;100.00
70206;BME280;57593;55.896;37.396;2022-11-14T02:57:28;99992.72;;;-0.04;100.00
70206;BME280;57593;55.896;37.396;2022-11-14T02:58:18;100007.09;;;0.04;100.00
70206;BME280;57593;55.896;37.396;2022-11-14T02:59:07;99991.47;;;-0.02;100.00
70206;BME280;57593;55.896;37.396;2022-11-14T02:59:56;99998.44;;;-0.02;100.00
70206;BME280;57593;55.896;37.396;2022-11-14T03:00:45;99988.34;;;0.02;100.00
70206;BME280;57593;55.896;37.396;2022-11-14T03:01:35;99982.13;;;0.03;100.00
70206;BME280;57593;55.896;37.396;2022-11-14T03:02:24;99998.50;;;0.03;100.00
70206;BME280;57593;55.896;37.396;2022-11-14T03:03:14;99980.31;;;0.03;100.00
70206;BME280;57593;55.896;37.396;2022-11-14T03:04:03;99980.56;;;0.02;100.00
70206;BME280;57593;55.896;37.396;2022-11-14T03:04:52;99992.03;;;0.06;100.00
70206;BME280;57593;55.896;37.396;2022-11-14T03:05:41;99983.25;;;0.12;100.00
70206;BME280;57593;55.896;37.396;2022-11-14T03:06:31;99984.94;;;0.23;100.00
70206;BME280;57593;55.896;37.396;2022-11-14T03:07:20;99992.22;;;0.26;100.00
70206;BME280;57593;55.896;37.396;2022-11-14T03:08:09;99999.44;;;0.19;100.00
70206;BME280;57593;55.896;37.396;2022-11-14T03:08:58;99991.31;;;0.10;100.00
70206;BME280;57593;55.896;37.396;2022-11-14T03:09:48;100002.94;;;0.08;100.00
70206;BME280;57593;55.896;37.396;2022-11-14T03:10:37;99982.88;;;-0.02;100.00
70206;BME280;57593;55.896;37.396;2022-11-14T03:11:26;99993.28;;;0.03;100.00
70206;BME280;57593;55.896;37.396;2022-11-14T03:12:16;99992.28;;;0.04;100.00
70206;BME280;57593;55.896;37.396;2022-11-14T03:13:06;99978.22;;;0.00;100.00
70206;BME280;57593;55.896;37.396;2022-11-14T03:13:55;99978.28;;;0.05;100.00
70206;BME280;57593;55.896;37.396;2022-11-14T03:14:44;99992.19;;;0.21;100.00
70206;BME280;57593;55.896;37.396;2022-11-14T03:15:37;99987.00;;;0.21;100.00
70206;BME280;57593;55.896;37.396;2022-11-14T03:16:27;99990.09;;;0.18;100.00
70206;BME280;57593;55.896;37.396;2022-11-14T03:17:16;99996.53;;;0.15;100.00
70206;BME280;57593;55.896;37.396;2022-11-14T03:18:06;99985.97;;;0.22;100.00
70206;BME280;57593;55.896;37.396;2022-11-14T03:18:55;99971.19;;;0.28;100.00
70206;BME280;57593;55.896;37.396;2022-11-14T03:19:44;99986.75;;;0.23;100.00
70206;BME280;57593;55.896;37.396;2022-11-14T03:20:34;100001.72;;;0.15;100.00
70206;BME280;57593;55.896;37.396;2022-11-14T03:21:23;99995.22;;;0.13;100.00
70206;BME280;57593;55.896;37.396;2022-11-14T03:22:12;100007.38;;;0.07;100.00
70206;BME280;57593;55.896;37.396;2022-11-14T03:23:02;99993.22;;;0.20;100.00
70206;BME280;57593;55.896;37.396;2022-11-14T03:23:52;100010.34;;;0.16;100.00
70206;BME280;57593;55.896;37.396;2022-11-14T03:24:41;99994.19;;;0.14;100.00
70206;BME280;57593;55.896;37.396;2022-11-14T03:25:31;99994.44;;;0.12;100.00
70206;BME280;57593;55.896;37.396;2022-11-14T03:26:20;99990.81;;;0.13;100.00
70206;BME280;57593;55.896;37.396;2022-11-14T03:27:09;100000.72;;;0.16;100.00
70206;BME280;57593;55.896;37.396;2022-11-14T03:27:59;100008.47;;;0.11;100.00
70206;BME280;57593;55.896;37.396;2022-11-14T03:28:48;100003.34;;;0.22;100.00
70206;BME280;57593;55.896;37.396;2022-11-14T03:29:37;100018.66;;;0.18;100.00
70206;BME280;57593;55.896;37.396;2022-11-14T03:30:26;100008.50;;;0.16;100.00
70206;BME280;57593;55.896;37.396;2022-11-14T03:31:15;99998.97;;;0.22;100.00
70206;BME280;57593;55.896;37.396;2022-11-14T03:32:05;100005.19;;;0.21;100.00
70206;BME280;57593;55.896;37.396;2022-11-14T03:32:55;100013.47;;;0.18;100.00
70206;BME280;57593;55.896;37.396;2022-11-14T03:33:44;100019.09;;;0.10;100.00
70206;BME280;57593;55.896;37.396;2022-11-14T03:34:33;100002.22;;;0.12;100.00
70206;BME280;57593;55.896;37.396;2022-11-14T03:35:23;99997.34;;;0.16;100.00
70206;BME280;57593;55.896;37.396;2022-11-14T03:36:12;100004.66;;;0.19;100.00
70206;BME280;57593;55.896;37.396;2022-11-14T03:37:01;100011.88;;;0.17;100.00
70206;BME280;57593;55.896;37.396;2022-11-14T03:37:51;100009.66;;;0.26;100.00
70206;BME280;57593;55.896;37.396;2022-11-14T03:38:42;100013.84;;;0.32;100.00
70206;BME280;57593;55.896;37.396;2022-11-14T03:39:31;100011.50;;;0.30;100.00
70206;BME280;57593;55.896;37.396;2022-11-14T03:40:20;100017.22;;;0.32;100.00
70206;BME280;57593;55.896;37.396;2022-11-14T03:41:09;100015.63;;;0.26;100.00
70206;BME280;57593;55.896;37.396;2022-11-14T03:41:59;100037.19;;;0.27;100.00
70206;BME280;57593;55.896;37.396;2022-11-14T03:42:48;100021.28;;;0.23;100.00
70206;BME280;57593;55.896;37.396;2022-11-14T03:43:37;100011.09;;;0.16;100.00
70206;BME280;57593;55.896;37.396;2022-11-14T03:44:26;100019.19;;;0.20;100.00
70206;BME280;57593;55.896;37.396;2022-11-14T03:45:16;100024.75;;;0.29;100.00
70206;BME280;57593;55.896;37.396;2022-11-14T03:46:05;100003.47;;;0.32;100.00
70206;BME280;57593;55.896;37.396;2022-11-14T03:46:54;100006.50;;;0.24;100.00
70206;BME280;57593;55.896;37.396;2022-11-14T03:47:44;100016.84;;;0.18;100.00
70206;BME280;57593;55.896;37.396;2022-11-14T03:48:33;100036.31;;;0.16;100.00
70206;BME280;57593;55.896;37.396;2022-11-14T03:49:22;100029.53;;;0.15;100.00
70206;BME280;57593;55.896;37.396;2022-11-14T03:50:12;100012.72;;;0.23;100.00
70206;BME280;57593;55.896;37.396;2022-11-14T03:51:01;100020.28;;;0.24;100.00
70206;BME280;57593;55.896;37.396;2022-11-14T03:51:50;100026.00;;;0.26;100.00
70206;BME280;57593;55.896;37.396;2022-11-14T03:52:39;100009.53;;;0.15;100.00
70206;BME280;57593;55.896;37.396;2022-11-14T03:53:29;100021.78;;;0.20;100.00
70206;BME280;57593;55.896;37.396;2022-11-14T03:54:18;100037.38;;;0.20;100.00
70206;BME280;57593;55.896;37.396;2022-11-14T03:55:07;100039.81;;;0.05;100.00
70206;BME280;57593;55.896;37.396;2022-11-14T03:55:56;100023.63;;;-0.03;100.00
70206;BME280;57593;55.896;37.396;2022-11-14T03:56:46;100029.41;;;0.05;100.00
70206;BME280;57593;55.896;37.396;2022-11-14T03:57:35;100029.06;;;-0.04;100.00
70206;BME280;57593;55.896;37.396;2022-11-14T03:58:24;100034.56;;;-0.01;100.00
70206;BME280;57593;55.896;37.396;2022-11-14T03:59:14;100025.50;;;0.02;100.00
70206;BME280;57593;55.896;37.396;2022-11-14T04:00:03;100057.22;;;0.04;100.00
70206;BME280;57593;55.896;37.396;2022-11-14T04:00:52;100038.94;;;-0.06;100.00
70206;BME280;57593;55.896;37.396;2022-11-14T04:01:44;100030.16;;;0.00;100.00
70206;BME280;57593;55.896;37.396;2022-11-14T04:02:33;100027.31;;;0.02;100.00
70206;BME280;57593;55.896;37.396;2022-11-14T04:03:23;100025.78;;;0.06;100.00
70206;BME280;57593;55.896;37.396;2022-11-14T04:04:13;100022.22;;;0.12;100.00
70206;BME280;57593;55.896;37.396;2022-11-14T04:05:03;100020.03;;;-0.02;100.00
70206;BME280;57593;55.896;37.396;2022-11-14T04:05:52;100019.22;;;-0.02;100.00
70206;BME280;57593;55.896;37.396;2022-11-14T04:06:41;100036.97;;;0.06;100.00
70206;BME280;57593;55.896;37.396;2022-11-14T04:07:30;100025.03;;;0.05;100.00
70206;BME280;57593;55.896;37.396;2022-11-14T04:08:20;100023.44;;;0.04;100.00
70206;BME280;57593;55.896;37.396;2022-11-14T04:09:09;100019.59;;;0.07;100.00
70206;BME280;57593;55.896;37.396;2022-11-14T04:09:58;100028.44;;;0.11;100.00
70206;BME280;57593;55.896;37.396;2022-11-14T04:10:48;100023.50;;;0.09;100.00
70206;BME280;57593;55.896;37.396;2022-11-14T04:11:37;100026.09;;;0.09;100.00
70206;BME280;57593;55.896;37.396;2022-11-14T04:12:27;100032.38;;;0.13;100.00
70206;BME280;57593;55.896;37.396;2022-11-14T04:13:16;100017.34;;;-0.07;100.00
70206;BME280;57593;55.896;37.396;2022-11-14T04:14:05;100023.81;;;-0.09;100.00
70206;BME280;57593;55.896;37.396;2022-11-14T04:14:54;100023.50;;;-0.13;100.00
70206;BME280;57593;55.896;37.396;2022-11-14T04:15:44;100026.78;;;-0.01;100.00
70206;BME280;57593;55.896;37.396;2022-11-14T04:16:33;100032.25;;;0.03;100.00
70206;BME280;57593;55.896;37.396;2022-11-14T04:17:23;100029.41;;;0.05;100.00
70206;BME280;57593;55.896;37.396;2022-11-14T04:18:12;100036.09;;;-0.05;100.00
70206;BME280;57593;55.896;37.396;2022-11-14T04:19:01;100040.28;;;0.02;100.00
70206;BME280;57593;55.896;37.396;2022-11-14T04:19:50;100041.09;;;0.02;100.00
70206;BME280;57593;55.896;37.396;2022-11-14T04:20:40;100055.34;;;-0.01;100.00
70206;BME280;57593;55.896;37.396;2022-11-14T04:21:29;100045.31;;;-0.14;100.00
70206;BME280;57593;55.896;37.396;2022-11-14T04:22:18;100028.41;;;-0.16;100.00
70206;BME280;57593;55.896;37.396;2022-11-14T04:23:08;100046.72;;;-0.06;100.00
70206;BME280;57593;55.896;37.396;2022-11-14T04:23:57;100049.56;;;-0.08;100.00
70206;BME280;57593;55.896;37.396;2022-11-14T04:24:46;100043.59;;;-0.25;100.00